AAL1040 KLGA-KBOS
Flight info
| Callsign | AAL1040 |
|---|---|
| Flight time | 0h 40m |
| Altitude | 21000 |
| Route | MERIT ROBUC3 |
| Aircraft | B738/M-SDE2E3FGHIRWXY/LB1 |
Departure
| Time | 2026-05-05 14:57 |
|---|---|
| Airport | LaGuardia Airport (KLGA) |
Arrival
| Time | 2026-05-05 15:37 |
|---|---|
| Airport | Boston Logan International Airport (KBOS) |
| Time | Latitude | Longitude | Altitude | Speed | Heading |
|---|---|---|---|---|---|
| 2026-05-05 14:30 | 40.77524 | -73.86901 | 13 ft | 0 kts | 184° |
| 2026-05-05 14:41 | 40.77535 | -73.86900 | 13 ft | 3 kts | 178° |
| 2026-05-05 14:42 | 40.77554 | -73.86904 | 14 ft | 3 kts | 153° |
| 2026-05-05 14:42 | 40.77568 | -73.86918 | 15 ft | 3 kts | 111° |
| 2026-05-05 14:42 | 40.77571 | -73.86941 | 14 ft | 3 kts | 76° |
| 2026-05-05 14:42 | 40.77564 | -73.86965 | 15 ft | 3 kts | 53° |
| 2026-05-05 14:43 | 40.77553 | -73.86981 | 13 ft | 1 kts | 32° |
| 2026-05-05 14:43 | 40.77552 | -73.86982 | 14 ft | 2 kts | 32° |
| 2026-05-05 14:51 | 40.77552 | -73.86981 | 14 ft | 1 kts | 32° |
| 2026-05-05 14:51 | 40.77566 | -73.86970 | 15 ft | 5 kts | 32° |
| 2026-05-05 14:51 | 40.77614 | -73.86961 | 12 ft | 8 kts | 339° |
| 2026-05-05 14:51 | 40.77663 | -73.86990 | 12 ft | 8 kts | 3° |
| 2026-05-05 14:52 | 40.77712 | -73.87013 | 14 ft | 8 kts | 317° |
| 2026-05-05 14:52 | 40.77743 | -73.87069 | 16 ft | 7 kts | 304° |
| 2026-05-05 14:52 | 40.77771 | -73.87125 | 16 ft | 7 kts | 303° |
| 2026-05-05 14:52 | 40.77797 | -73.87181 | 15 ft | 7 kts | 301° |
| 2026-05-05 14:53 | 40.77824 | -73.87239 | 16 ft | 8 kts | 301° |
| 2026-05-05 14:53 | 40.77852 | -73.87298 | 19 ft | 7 kts | 301° |
| 2026-05-05 14:53 | 40.77879 | -73.87357 | 17 ft | 8 kts | 301° |
| 2026-05-05 14:53 | 40.77910 | -73.87423 | 16 ft | 9 kts | 302° |
| 2026-05-05 14:54 | 40.77950 | -73.87506 | 14 ft | 12 kts | 302° |
| 2026-05-05 14:54 | 40.77994 | -73.87597 | 16 ft | 12 kts | 303° |
| 2026-05-05 14:54 | 40.78037 | -73.87686 | 16 ft | 11 kts | 302° |
| 2026-05-05 14:54 | 40.78079 | -73.87773 | 15 ft | 11 kts | 302° |
| 2026-05-05 14:55 | 40.78127 | -73.87850 | 16 ft | 11 kts | 328° |
| 2026-05-05 14:55 | 40.78197 | -73.87853 | 17 ft | 10 kts | 29° |
| 2026-05-05 14:55 | 40.78193 | -73.87769 | 15 ft | 11 kts | 122° |
| 2026-05-05 14:55 | 40.78154 | -73.87690 | 14 ft | 10 kts | 122° |
| 2026-05-05 14:56 | 40.78116 | -73.87609 | 14 ft | 12 kts | 122° |
| 2026-05-05 14:56 | 40.77959 | -73.87282 | 16 ft | 84 kts | 122° |
| 2026-05-05 14:56 | 40.77495 | -73.86334 | 21 ft | 158 kts | 126° |
| 2026-05-05 14:56 | 40.76837 | -73.84987 | 542 ft | 186 kts | 124° |
| 2026-05-05 14:57 | 40.76124 | -73.83472 | 1348 ft | 203 kts | 127° |
| 2026-05-05 14:57 | 40.75325 | -73.81833 | 2118 ft | 224 kts | 127° |
| 2026-05-05 14:57 | 40.74855 | -73.79734 | 2334 ft | 258 kts | 88° |
| 2026-05-05 14:57 | 40.75475 | -73.77493 | 2801 ft | 272 kts | 50° |
| 2026-05-05 14:58 | 40.77015 | -73.76019 | 3311 ft | 276 kts | 14° |
| 2026-05-05 14:58 | 40.78881 | -73.75356 | 4043 ft | 281 kts | 8° |
| 2026-05-05 14:58 | 40.80811 | -73.74764 | 4819 ft | 286 kts | 9° |
| 2026-05-05 14:58 | 40.82762 | -73.74134 | 5628 ft | 292 kts | 11° |
| 2026-05-05 14:59 | 40.84745 | -73.73350 | 6296 ft | 302 kts | 17° |
| 2026-05-05 14:59 | 40.86710 | -73.72268 | 7007 ft | 309 kts | 23° |
| 2026-05-05 14:59 | 40.88585 | -73.70928 | 7811 ft | 312 kts | 28° |
| 2026-05-05 14:59 | 40.90430 | -73.69356 | 8548 ft | 318 kts | 33° |
| 2026-05-05 15:00 | 40.92238 | -73.67616 | 9276 ft | 323 kts | 35° |
| 2026-05-05 15:00 | 40.93420 | -73.66396 | 9774 ft | 327 kts | 37° |
| 2026-05-05 15:00 | 40.95805 | -73.63805 | 10459 ft | 343 kts | 38° |
| 2026-05-05 15:00 | 40.97683 | -73.61689 | 10634 ft | 366 kts | 39° |
| 2026-05-05 15:01 | 40.99660 | -73.59415 | 10819 ft | 387 kts | 39° |
| 2026-05-05 15:01 | 41.01713 | -73.57022 | 11239 ft | 398 kts | 39° |
| 2026-05-05 15:01 | 41.03802 | -73.54566 | 11884 ft | 402 kts | 39° |
| 2026-05-05 15:01 | 41.05864 | -73.52132 | 12644 ft | 404 kts | 38° |
| 2026-05-05 15:02 | 41.07964 | -73.49649 | 13423 ft | 406 kts | 38° |
| 2026-05-05 15:02 | 41.10081 | -73.47145 | 14126 ft | 409 kts | 38° |
| 2026-05-05 15:02 | 41.12216 | -73.44619 | 14801 ft | 413 kts | 38° |
| 2026-05-05 15:02 | 41.14365 | -73.42074 | 15530 ft | 415 kts | 38° |
| 2026-05-05 15:03 | 41.16527 | -73.39512 | 16235 ft | 418 kts | 38° |
| 2026-05-05 15:03 | 41.18706 | -73.36929 | 16906 ft | 421 kts | 38° |
| 2026-05-05 15:03 | 41.20898 | -73.34327 | 17587 ft | 425 kts | 39° |
| 2026-05-05 15:03 | 41.23113 | -73.31696 | 18225 ft | 429 kts | 39° |
| 2026-05-05 15:04 | 41.25351 | -73.29034 | 18808 ft | 432 kts | 39° |
| 2026-05-05 15:04 | 41.27590 | -73.26368 | 19420 ft | 433 kts | 39° |
| 2026-05-05 15:04 | 41.29842 | -73.23684 | 20023 ft | 435 kts | 39° |
| 2026-05-05 15:04 | 41.32080 | -73.21015 | 20590 ft | 438 kts | 40° |
| 2026-05-05 15:05 | 41.36512 | -73.15385 | 21685 ft | 446 kts | 50° |
| 2026-05-05 15:05 | 41.38226 | -73.11927 | 22224 ft | 449 kts | 62° |
| 2026-05-05 15:05 | 41.39442 | -73.08092 | 22770 ft | 452 kts | 73° |
| 2026-05-05 15:06 | 41.40283 | -73.04016 | 22963 ft | 460 kts | 76° |
| 2026-05-05 15:06 | 41.41075 | -72.99842 | 22970 ft | 469 kts | 76° |
| 2026-05-05 15:06 | 41.41868 | -72.95578 | 22969 ft | 476 kts | 76° |
| 2026-05-05 15:06 | 41.42658 | -72.91370 | 22944 ft | 472 kts | 77° |
| 2026-05-05 15:07 | 41.43462 | -72.87142 | 22941 ft | 470 kts | 77° |
| 2026-05-05 15:07 | 41.44274 | -72.82928 | 22947 ft | 468 kts | 76° |
| 2026-05-05 15:07 | 41.45090 | -72.78731 | 22951 ft | 467 kts | 76° |
| 2026-05-05 15:07 | 41.45907 | -72.74541 | 22947 ft | 467 kts | 76° |
| 2026-05-05 15:08 | 41.46725 | -72.70353 | 22958 ft | 467 kts | 76° |
| 2026-05-05 15:08 | 41.47541 | -72.66164 | 22960 ft | 467 kts | 76° |
| 2026-05-05 15:08 | 41.48356 | -72.61970 | 22958 ft | 467 kts | 76° |
| 2026-05-05 15:08 | 41.49171 | -72.57767 | 22931 ft | 468 kts | 77° |
| 2026-05-05 15:09 | 41.49984 | -72.53564 | 22932 ft | 468 kts | 77° |
| 2026-05-05 15:09 | 41.50796 | -72.49357 | 22951 ft | 468 kts | 77° |
| 2026-05-05 15:09 | 41.51607 | -72.45141 | 22919 ft | 469 kts | 77° |
| 2026-05-05 15:09 | 41.52416 | -72.40927 | 22918 ft | 469 kts | 77° |
| 2026-05-05 15:10 | 41.53224 | -72.36709 | 22928 ft | 469 kts | 77° |
| 2026-05-05 15:10 | 41.54030 | -72.32491 | 22931 ft | 469 kts | 77° |
| 2026-05-05 15:10 | 41.54825 | -72.28328 | 22940 ft | 469 kts | 77° |
| 2026-05-05 15:10 | 41.55629 | -72.24104 | 22928 ft | 469 kts | 77° |
| 2026-05-05 15:11 | 41.56431 | -72.19881 | 22945 ft | 469 kts | 77° |
| 2026-05-05 15:11 | 41.57231 | -72.15660 | 22941 ft | 469 kts | 77° |
| 2026-05-05 15:11 | 41.58026 | -72.11459 | 22931 ft | 461 kts | 77° |
| 2026-05-05 15:11 | 41.58801 | -72.07363 | 22552 ft | 451 kts | 77° |
| 2026-05-05 15:12 | 41.59560 | -72.03337 | 22068 ft | 444 kts | 77° |
| 2026-05-05 15:12 | 41.60289 | -71.99458 | 21534 ft | 439 kts | 77° |
| 2026-05-05 15:12 | 41.61026 | -71.95524 | 20980 ft | 435 kts | 77° |
| 2026-05-05 15:12 | 41.61756 | -71.91621 | 20433 ft | 431 kts | 77° |
| 2026-05-05 15:13 | 41.62480 | -71.87744 | 19875 ft | 428 kts | 78° |
| 2026-05-05 15:13 | 41.63200 | -71.83879 | 19338 ft | 425 kts | 78° |
| 2026-05-05 15:13 | 41.63901 | -71.80113 | 18821 ft | 422 kts | 78° |
| 2026-05-05 15:13 | 41.64608 | -71.76302 | 18280 ft | 420 kts | 78° |
| 2026-05-05 15:14 | 41.65302 | -71.72563 | 18077 ft | 410 kts | 78° |
| 2026-05-05 15:14 | 41.65980 | -71.68897 | 17863 ft | 400 kts | 78° |
| 2026-05-05 15:14 | 41.66639 | -71.65333 | 17678 ft | 389 kts | 78° |
| 2026-05-05 15:14 | 41.67281 | -71.61849 | 17503 ft | 379 kts | 78° |
| 2026-05-05 15:15 | 41.67908 | -71.58469 | 17322 ft | 370 kts | 77° |
| 2026-05-05 15:15 | 41.68710 | -71.55249 | 16910 ft | 369 kts | 69° |
| 2026-05-05 15:15 | 41.69692 | -71.52086 | 16560 ft | 367 kts | 68° |
| 2026-05-05 15:15 | 41.70666 | -71.48946 | 16195 ft | 364 kts | 69° |
| 2026-05-05 15:16 | 41.71607 | -71.45805 | 15828 ft | 363 kts | 69° |
| 2026-05-05 15:16 | 41.72550 | -71.42684 | 15462 ft | 361 kts | 65° |
| 2026-05-05 15:16 | 41.73727 | -71.39714 | 15097 ft | 360 kts | 59° |
| 2026-05-05 15:16 | 41.75011 | -71.36845 | 14736 ft | 359 kts | 58° |
| 2026-05-05 15:17 | 41.76288 | -71.33979 | 14354 ft | 358 kts | 59° |
| 2026-05-05 15:17 | 41.77541 | -71.31094 | 13988 ft | 358 kts | 59° |
| 2026-05-05 15:17 | 41.78778 | -71.28207 | 13599 ft | 357 kts | 59° |
| 2026-05-05 15:17 | 41.80006 | -71.25325 | 13210 ft | 356 kts | 59° |
| 2026-05-05 15:18 | 41.81229 | -71.22450 | 12836 ft | 354 kts | 59° |
| 2026-05-05 15:18 | 41.82446 | -71.19588 | 12479 ft | 352 kts | 59° |
| 2026-05-05 15:18 | 41.83654 | -71.16745 | 12142 ft | 349 kts | 60° |
| 2026-05-05 15:18 | 41.84841 | -71.13949 | 12000 ft | 340 kts | 60° |
| 2026-05-05 15:19 | 41.85986 | -71.11257 | 11872 ft | 333 kts | 60° |
| 2026-05-05 15:19 | 41.87143 | -71.08576 | 11718 ft | 330 kts | 59° |
| 2026-05-05 15:19 | 41.88295 | -71.05914 | 11577 ft | 329 kts | 59° |
| 2026-05-05 15:19 | 41.89446 | -71.03257 | 11435 ft | 330 kts | 59° |
| 2026-05-05 15:20 | 41.90604 | -71.00580 | 11289 ft | 334 kts | 59° |
| 2026-05-05 15:20 | 41.91744 | -70.97938 | 11145 ft | 335 kts | 60° |
| 2026-05-05 15:20 | 41.92909 | -70.95235 | 10987 ft | 334 kts | 60° |
| 2026-05-05 15:20 | 41.94071 | -70.92536 | 10838 ft | 333 kts | 60° |
| 2026-05-05 15:21 | 41.95229 | -70.89842 | 10706 ft | 331 kts | 60° |
| 2026-05-05 15:21 | 41.96374 | -70.87175 | 10582 ft | 328 kts | 59° |
| 2026-05-05 15:21 | 41.97514 | -70.84518 | 10458 ft | 327 kts | 60° |
| 2026-05-05 15:21 | 41.98650 | -70.81871 | 10325 ft | 327 kts | 60° |
| 2026-05-05 15:22 | 41.99777 | -70.79239 | 10260 ft | 322 kts | 59° |
| 2026-05-05 15:22 | 42.00885 | -70.76662 | 10085 ft | 317 kts | 58° |
| 2026-05-05 15:22 | 42.02173 | -70.74324 | 9775 ft | 315 kts | 46° |
| 2026-05-05 15:22 | 42.03665 | -70.72163 | 9447 ft | 315 kts | 44° |
| 2026-05-05 15:23 | 42.05172 | -70.70029 | 9132 ft | 314 kts | 45° |
| 2026-05-05 15:23 | 42.06654 | -70.67875 | 8826 ft | 313 kts | 45° |
| 2026-05-05 15:23 | 42.07623 | -70.66440 | 8628 ft | 312 kts | 46° |
| 2026-05-05 15:23 | 42.09072 | -70.64275 | 8336 ft | 310 kts | 46° |
| 2026-05-05 15:24 | 42.10588 | -70.62230 | 8025 ft | 307 kts | 31° |
| 2026-05-05 15:24 | 42.12488 | -70.61082 | 7755 ft | 295 kts | 8° |
| 2026-05-05 15:24 | 42.14472 | -70.60495 | 7501 ft | 291 kts | 5° |
| 2026-05-05 15:24 | 42.16455 | -70.59973 | 7243 ft | 290 kts | 5° |
| 2026-05-05 15:25 | 42.18430 | -70.59456 | 6962 ft | 289 kts | 5° |
| 2026-05-05 15:25 | 42.20399 | -70.58929 | 6694 ft | 288 kts | 5° |
| 2026-05-05 15:25 | 42.22363 | -70.58395 | 6417 ft | 287 kts | 6° |
| 2026-05-05 15:25 | 42.24317 | -70.57855 | 6137 ft | 286 kts | 6° |
| 2026-05-05 15:26 | 42.26237 | -70.57320 | 5858 ft | 285 kts | 6° |
| 2026-05-05 15:26 | 42.28170 | -70.56780 | 5589 ft | 283 kts | 6° |
| 2026-05-05 15:26 | 42.30092 | -70.56243 | 5321 ft | 282 kts | 6° |
| 2026-05-05 15:26 | 42.31997 | -70.56081 | 5065 ft | 266 kts | 340° |
| 2026-05-05 15:27 | 42.33612 | -70.57009 | 5020 ft | 245 kts | 319° |
| 2026-05-05 15:27 | 42.34908 | -70.58422 | 5014 ft | 237 kts | 315° |
| 2026-05-05 15:27 | 42.36378 | -70.59498 | 5026 ft | 251 kts | 343° |
| 2026-05-05 15:27 | 42.38157 | -70.59812 | 4989 ft | 261 kts | 348° |
| 2026-05-05 15:28 | 42.39800 | -70.60588 | 4987 ft | 241 kts | 318° |
| 2026-05-05 15:28 | 42.40772 | -70.62287 | 5005 ft | 224 kts | 289° |
| 2026-05-05 15:28 | 42.41350 | -70.64242 | 5031 ft | 227 kts | 292° |
| 2026-05-05 15:28 | 42.42098 | -70.66159 | 5007 ft | 232 kts | 298° |
| 2026-05-05 15:29 | 42.42997 | -70.68000 | 4997 ft | 236 kts | 303° |
| 2026-05-05 15:29 | 42.43818 | -70.69892 | 4979 ft | 230 kts | 283° |
| 2026-05-05 15:29 | 42.44195 | -70.71936 | 5133 ft | 222 kts | 281° |
| 2026-05-05 15:29 | 42.44897 | -70.73879 | 4837 ft | 241 kts | 299° |
| 2026-05-05 15:30 | 42.46082 | -70.75550 | 4560 ft | 246 kts | 308° |
| 2026-05-05 15:30 | 42.47162 | -70.77260 | 4281 ft | 237 kts | 294° |
| 2026-05-05 15:30 | 42.47785 | -70.79234 | 4213 ft | 223 kts | 286° |
| 2026-05-05 15:30 | 42.48423 | -70.81149 | 3988 ft | 223 kts | 290° |
| 2026-05-05 15:31 | 42.49133 | -70.83020 | 3725 ft | 224 kts | 292° |
| 2026-05-05 15:31 | 42.49871 | -70.84853 | 3452 ft | 219 kts | 292° |
| 2026-05-05 15:31 | 42.50603 | -70.86622 | 3272 ft | 209 kts | 292° |
| 2026-05-05 15:31 | 42.51297 | -70.88279 | 3190 ft | 194 kts | 292° |
| 2026-05-05 15:32 | 42.51881 | -70.89847 | 3058 ft | 177 kts | 277° |
| 2026-05-05 15:32 | 42.51647 | -70.91287 | 3035 ft | 157 kts | 232° |
| 2026-05-05 15:32 | 42.50839 | -70.92326 | 2854 ft | 161 kts | 225° |
| 2026-05-05 15:32 | 42.50000 | -70.93277 | 2653 ft | 151 kts | 222° |
| 2026-05-05 15:33 | 42.49167 | -70.94030 | 2505 ft | 135 kts | 213° |
| 2026-05-05 15:33 | 42.48334 | -70.94593 | 2322 ft | 132 kts | 212° |
| 2026-05-05 15:33 | 42.47502 | -70.95136 | 2133 ft | 131 kts | 207° |
| 2026-05-05 15:33 | 42.46642 | -70.95581 | 1970 ft | 138 kts | 206° |
| 2026-05-05 15:34 | 42.45736 | -70.96032 | 1787 ft | 139 kts | 204° |
| 2026-05-05 15:34 | 42.44838 | -70.96472 | 1595 ft | 138 kts | 202° |
| 2026-05-05 15:34 | 42.43932 | -70.96904 | 1406 ft | 137 kts | 202° |
| 2026-05-05 15:34 | 42.43031 | -70.97327 | 1199 ft | 137 kts | 205° |
| 2026-05-05 15:35 | 42.42174 | -70.97758 | 1047 ft | 135 kts | 204° |
| 2026-05-05 15:35 | 42.41279 | -70.98195 | 863 ft | 139 kts | 201° |
| 2026-05-05 15:35 | 42.40357 | -70.98639 | 681 ft | 141 kts | 203° |
| 2026-05-05 15:35 | 42.39431 | -70.99083 | 526 ft | 146 kts | 200° |
| 2026-05-05 15:36 | 42.38423 | -70.99542 | 258 ft | 154 kts | 202° |
| 2026-05-05 15:36 | 42.37457 | -71.00042 | 53 ft | 142 kts | 202° |
| 2026-05-05 15:36 | 42.36604 | -71.00463 | 27 ft | 113 kts | 200° |
| 2026-05-05 15:36 | 42.36000 | -71.00751 | 28 ft | 71 kts | 199° |
| 2026-05-05 15:37 | 42.35678 | -71.00906 | 24 ft | 28 kts | 199° |
| 2026-05-05 15:37 | 42.35586 | -71.00949 | 25 ft | 10 kts | 199° |
| 2026-05-05 15:37 | 42.35516 | -71.00981 | 25 ft | 12 kts | 199° |
| 2026-05-05 15:37 | 42.35433 | -71.01022 | 24 ft | 14 kts | 202° |
| 2026-05-05 15:38 | 42.35384 | -71.01132 | 24 ft | 16 kts | 283° |
| 2026-05-05 15:38 | 42.35428 | -71.01275 | 29 ft | 16 kts | 290° |
| 2026-05-05 15:38 | 42.35503 | -71.01356 | 28 ft | 16 kts | 14° |
| 2026-05-05 15:38 | 42.35576 | -71.01325 | 26 ft | 0 kts | 17° |
| 2026-05-05 15:39 | 42.35577 | -71.01324 | 26 ft | 1 kts | 17° |
| 2026-05-05 15:39 | 42.35591 | -71.01321 | 24 ft | 3 kts | 8° |
| 2026-05-05 15:39 | 42.35623 | -71.01315 | 26 ft | 6 kts | 7° |
| 2026-05-05 15:39 | 42.35670 | -71.01301 | 24 ft | 3 kts | 18° |
| 2026-05-05 15:40 | 42.35672 | -71.01300 | 24 ft | 1 kts | 18° |
| 2026-05-05 15:40 | 42.35688 | -71.01294 | 29 ft | 5 kts | 16° |
| 2026-05-05 15:40 | 42.35729 | -71.01299 | 25 ft | 7 kts | 329° |
| 2026-05-05 15:40 | 42.35755 | -71.01359 | 26 ft | 8 kts | 292° |
| 2026-05-05 15:41 | 42.35776 | -71.01430 | 27 ft | 8 kts | 290° |
| 2026-05-05 15:41 | 42.35795 | -71.01501 | 28 ft | 8 kts | 288° |
| 2026-05-05 15:41 | 42.35811 | -71.01572 | 25 ft | 8 kts | 286° |
| 2026-05-05 15:41 | 42.35826 | -71.01644 | 26 ft | 8 kts | 284° |
| 2026-05-05 15:42 | 42.35871 | -71.01671 | 27 ft | 8 kts | 6° |
| 2026-05-05 15:42 | 42.35905 | -71.01726 | 28 ft | 9 kts | 285° |
| 2026-05-05 15:42 | 42.35920 | -71.01806 | 27 ft | 8 kts | 285° |
| 2026-05-05 15:42 | 42.35944 | -71.01880 | 28 ft | 9 kts | 298° |
| 2026-05-05 15:43 | 42.35978 | -71.01955 | 28 ft | 10 kts | 301° |
| 2026-05-05 15:43 | 42.36015 | -71.02036 | 26 ft | 10 kts | 301° |
| 2026-05-05 15:43 | 42.36054 | -71.02123 | 24 ft | 11 kts | 301° |
| 2026-05-05 15:43 | 42.36095 | -71.02214 | 26 ft | 12 kts | 301° |
| 2026-05-05 15:44 | 42.36157 | -71.02276 | 27 ft | 12 kts | 358° |
| 2026-05-05 15:44 | 42.36239 | -71.02252 | 27 ft | 12 kts | 22° |
| 2026-05-05 15:44 | 42.36266 | -71.02172 | 26 ft | 8 kts | 105° |
| 2026-05-05 15:44 | 42.36243 | -71.02144 | 25 ft | 3 kts | 169° |
| 2026-05-05 15:45 | 42.36233 | -71.02144 | 26 ft | 1 kts | 181° |
| 2026-05-05 15:45 | 42.36227 | -71.02144 | 28 ft | 1 kts | 180° |
| 2026-05-05 15:45 | 42.36221 | -71.02144 | 27 ft | 1 kts | 177° |
| 2026-05-05 15:45 | 42.36216 | -71.02144 | 26 ft | 1 kts | 177° |
| 2026-05-05 15:46 | 42.36210 | -71.02143 | 24 ft | 1 kts | 176° |
| 2026-05-05 15:46 | 42.36209 | -71.02143 | 24 ft | 0 kts | 175° |